x

La Perouse Bank (46206) Wave Buoy

8:00 - Mon 25th May 2015 All times are PDT. -7 hours from GMT.

  • Sig Wave height 5.6ft
  • Peak Period 8s
  • Wind
    7mph, 9mph gusts
  • Sea Temp 53°f
  • Ar Temp 52°f
  • Sea Pressure 1015.9mb
  • La Perouse Bank
  • La Perouse Bank

More Historic Weather Station data

Upgrade to MSW Pro to gain access to the past 30 days of data for over 8000 Wavebouys and Weather Stations around the globe.

Join Pro

Comparision Forecast

View Surf forecast
   
Seg 05/25 8:00 5.5ft 8s 7 9 mph 1015.9mb 53f 52f
7:00 6ft 7s 7 9 mph 1015.7mb 53f 51f
6:00 6ft 7s 7 9 mph 1015.5mb 53f 51f
5:00 6.5ft 7s 4 9 mph 1015.6mb 53f 52f
4:00 7ft 8s 2 7 mph 1015.5mb 53f 51f
3:00 7.5ft 8s 4 7 mph 1015.6mb 54f 52f
2:00 6ft 8s 4 9 mph 1015.7mb 54f 52f
1:00 6ft 8s 7 9 mph 1015.9mb 54f 52f
12:00 6ft 7s 7 9 mph 1016.4mb 54f 53f
Dom 05/24 11:00 5.5ft 7s 9 13 mph 1016.5mb 54f 53f
10:00 5ft 7s 11 13 mph 1016.8mb 54f 53f
9:00 5ft 11s 13 16 mph 1016.7mb 54f 53f
8:00 4.5ft 11s 11 13 mph 1016.8mb 54f 52f
7:00 4.5ft 12s 11 16 mph 1017.2mb 54f 52f
6:00 5ft 8s 13 16 mph 1017.6mb 54f 53f
5:00 5ft 7s 9 16 mph 1018mb 54f 53f
4:00 5ft 8s 7 9 mph 1018.7mb 54f 53f
3:00 5ft 7s 7 9 mph 1019.3mb 54f 53f
2:00 5ft 8s 7 9 mph 1019.8mb 54f 53f
1:00 5ft 8s 4 7 mph 1020.1mb 54f 53f
12:00 5ft 6s 4
mph
1020.5mb 53f 53f
11:00 5ft 8s 4
mph
1020.7mb 53f 53f
10:00 5ft 7s 2 4 mph 1020.7mb 53f 53f
9:00 5ft 7s 2 4 mph 1020.9mb 53f 52f
8:00 5ft 7s 7 11 mph 1020.9mb 53f 52f
7:00 5.5ft 11s 9 13 mph 1021.2mb 53f 52f
6:00 5.5ft 7s 13 16 mph 1021.2mb 53f 52f
5:00 5.5ft 7s 13 18 mph 1021.1mb 53f 51f
4:00 6ft 6s 13 16 mph 1021.5mb 53f 51f
3:00 6.5ft 7s 13 16 mph 1021.6mb 53f 51f
2:00 6ft 7s 11 16 mph 1021.9mb 53f 51f
1:00 6ft 6s 13 18 mph 1022.2mb 53f 51f
12:00 5.5ft 11s 16 18 mph 1022.2mb 53f 51f
Sáb 05/23 11:00 5ft 6s 18 22 mph 1022.3mb 53f 51f
10:00 5ft 9s 16 22 mph 1022.3mb 53f 52f
9:00 5ft 12s 20 22 mph 1022mb 53f 51f
8:00 4.5ft 12s 18 22 mph 1021.8mb 53f 52f
7:00 4.5ft 10s 18 20 mph 1021.6mb 53f 52f
6:00 4.5ft 12s 18 20 mph 1021.8mb 53f 53f
5:00 5ft 10s 18 22 mph 1022.1mb 53f 52f
4:00 5ft 12s 18 20 mph 1022.3mb 53f 53f
3:00 5ft 12s 13 16 mph 1022.7mb 53f 52f
2:00 4.5ft 12s 11 13 mph 1022.8mb 53f 52f
1:00 4.5ft 8s 11 13 mph 1022.8mb 53f 52f
12:00 4.5ft 8s 9 13 mph 1022.6mb 53f 52f
11:00 4.5ft 10s 9 11 mph 1022.4mb 54f 52f
10:00 4.5ft 13s 9 13 mph 1022mb 54f 52f
9:00 5ft 13s 9
mph
1021.7mb 54f 51f
8:00 5ft 13s 7 9 mph 1021.2mb 53f 52f
7:00 5ft 13s 9 13 mph 1020.8mb 54f 51f
6:00 5ft 13s 9 13 mph 1020.3mb 54f 51f
5:00 5.5ft 8s 11 20 mph 1019.9mb 54f 51f
4:00 6ft 7s 13 16 mph 1019.7mb 53f 52f
3:00 6ft 7s 13 18 mph 1019.6mb 54f 52f
2:00 6.5ft 8s 13 18 mph 1019.5mb 54f 52f
1:00 6ft 8s 16 18 mph 1019mb 54f 52f
12:00 5.5ft 8s 13 18 mph 1018.7mb 54f 53f
Sex 05/22 11:00 5ft 7s 11 16 mph 1018.3mb 54f 53f
10:00 5ft 8s 11 16 mph 1018.2mb 54f 52f
9:00 4.5ft 9s 13 16 mph 1017.6mb 54f 53f
8:00 4.5ft 8s 13 16 mph 1017.1mb 54f 53f
7:00 4.5ft 8s 7 11 mph 1017mb 54f 54f
6:00 4.5ft 8s 2 4 mph 1016.6mb 54f 53f
5:00 5ft 8s 4
mph
1016.5mb 54f 53f
4:00 5ft 8s 4
mph
1016.5mb 54f 53f
3:00 5ft 8s 7 9 mph 1016.4mb 54f 52f
2:00 5.5ft 8s 7 9 mph 1016.1mb 54f 52f
1:00 6ft 8s 7 9 mph 1016mb 54f 52f
12:00 5.5ft 8s 4 7 mph 1015.8mb 54f 52f
11:00 5ft 9s 4 7 mph 1015.3mb 54f 52f
10:00 5ft 8s 9 11 mph 1015mb 54f 52f
9:00 5ft 7s 9 11 mph 1014.4mb 54f 52f
8:00 5.5ft 8s 7 11 mph 1014.2mb 53f 52f
7:00 6ft 8s 4 7 mph 1013.7mb 54f 52f
6:00 7ft 8s 7 9 mph 1013.6mb 53f 52f
5:00 6.5ft 8s 4 9 mph 1013.6mb 54f 52f
4:00 7ft 7s 4 7 mph 1013.6mb 54f 52f
3:00 7.5ft 8s 9 13 mph 1013.5mb 54f 52f
2:00 7.5ft 7s 11 18 mph 1013.5mb 54f 51f
1:00 7.5ft 9s 11 16 mph 1013.2mb 54f 52f
12:00 8ft 8s 16 18 mph 1012.9mb 54f 52f
Qui 05/21 11:00 7.5ft 8s 16 20 mph 1012.7mb 54f 52f
10:00 7ft 8s 18 22 mph 1012.3mb 54f 52f
9:00 7ft 8s 20 25 mph 1011.9mb 54f 53f
8:00 6ft 8s 20 25 mph 1011.6mb 54f 52f
7:00 6ft 9s 18 22 mph 1011.9mb 54f 53f
6:00 5.5ft 8s 18 22 mph 1011.9mb 54f 53f
5:00 5.5ft 7s 16 22 mph 1011.7mb 54f 52f